Killarney, Canada
Current Conditions -  °F | °C
As of 7:00 PM on Thursday 18 Dec 2014 (Local Time) from CYZE Reporting Station
Clear Clear  
Wind Chill: 13°   Ceiling: Unl
Heat Index: 21°   Visibility: 9mi
Dew Point: 12°   Wind: 7mph
Humidity: 68%   Direction: 40°NE
Pressure: 30.2"   Gusts: NA
Location:  45.98°N, 81.5°W
Report Text: CYZE 190000Z AUTO 04006KT 9SM CLR M06/M11 A3020 RMK ICG SLP240
Loading
Personal Weather Stations






























Interactive Weather Map New forecast layout! Learn more

10-Day Weather Forecast

Advertisements
Track Severe Weather on mobile